Time;durP1;ratioP1;P1;durP2;ratioP2;P2;SDS_P1;SDS_P2;PMS_P1;PMS_P2;Temp;Humidity;BMP_temperature;BMP_pressure;BME280_temperature;BME280_humidity;BME280_pressure;Samples;Min_cycle;Max_cycle;Signal;HPM_P1;HPM_P2
2022/10/25 00:00:28;;;;;;;4.23;1.90;;;14.80;99.90;;;;;;5070453;28;20476;-38
2022/10/25 00:02:54;;;;;;;4.00;1.90;;;14.90;99.90;;;;;;5069997;28;20188;-38
2022/10/25 00:05:19;;;;;;;5.17;2.00;;;14.90;99.90;;;;;;5070751;28;20407;-37
2022/10/25 00:07:45;;;;;;;3.83;1.90;;;14.90;99.90;;;;;;5070526;28;20283;-37
2022/10/25 00:10:11;;;;;;;3.47;1.73;;;15.00;99.90;;;;;;5069917;28;20204;-37
2022/10/25 00:12:41;;;;;;;5.53;1.93;;;15.00;99.90;;;;;;5070588;28;20177;-38
2022/10/25 00:15:08;;;;;;;5.40;2.27;;;15.00;99.90;;;;;;5070478;28;20181;-38
2022/10/25 00:17:33;;;;;;;7.97;2.73;;;14.90;99.90;;;;;;5070741;28;20418;-38
2022/10/25 00:19:59;;;;;;;6.60;2.57;;;14.90;99.90;;;;;;5072891;28;20513;-37
2022/10/25 00:22:27;;;;;;;5.50;2.00;;;14.90;99.90;;;;;;5091070;28;20195;-37
2022/10/25 00:24:53;;;;;;;7.67;2.43;;;14.90;99.90;;;;;;5090599;28;20189;-37
2022/10/25 00:27:19;;;;;;;7.73;2.20;;;14.90;99.90;;;;;;5090667;28;21126;-38
2022/10/25 00:29:44;;;;;;;4.03;1.83;;;14.90;99.90;;;;;;5090030;28;20216;-37
2022/10/25 00:32:10;;;;;;;4.83;2.30;;;14.80;99.90;;;;;;5089416;28;20180;-38
2022/10/25 00:34:38;;;;;;;4.73;1.90;;;14.80;99.90;;;;;;5090359;28;20585;-38
2022/10/25 00:37:04;;;;;;;6.77;2.40;;;14.80;99.90;;;;;;5090369;28;20184;-38
2022/10/25 00:39:30;;;;;;;2.53;1.90;;;14.70;99.90;;;;;;5090623;28;20410;-38
2022/10/25 00:41:56;;;;;;;7.23;1.60;;;14.70;99.90;;;;;;5090157;28;20215;-37
2022/10/25 00:44:52;;;;;;;3.77;1.73;;;14.70;99.90;;;;;;5089996;28;20176;-37
2022/10/25 00:47:20;;;;;;;4.03;1.77;;;14.70;99.90;;;;;;5090092;28;20815;-37
2022/10/25 00:49:54;;;;;;;8.33;2.20;;;14.70;99.90;;;;;;5089908;28;20480;-37
2022/10/25 00:52:19;;;;;;;6.87;2.23;;;14.70;99.90;;;;;;5089550;28;20421;-38
2022/10/25 00:54:49;;;;;;;4.60;2.03;;;14.70;99.90;;;;;;5090034;28;20410;-38
2022/10/25 00:57:24;;;;;;;4.33;2.00;;;14.80;99.90;;;;;;5088925;28;20271;-37
2022/10/25 00:59:50;;;;;;;4.87;1.73;;;14.80;99.90;;;;;;5089866;28;20950;-37
2022/10/25 01:02:17;;;;;;;6.00;2.30;;;14.80;99.90;;;;;;5088616;28;20403;-38
2022/10/25 01:04:43;;;;;;;6.90;2.00;;;14.80;99.90;;;;;;5089979;28;20506;-38
2022/10/25 01:07:09;;;;;;;3.40;1.67;;;14.80;99.90;;;;;;5089956;28;20431;-37
2022/10/25 01:09:36;;;;;;;5.63;1.90;;;14.90;99.90;;;;;;5089611;28;20458;-38
2022/10/25 01:12:03;;;;;;;6.77;2.03;;;14.80;99.90;;;;;;5089782;28;20403;-37
2022/10/25 01:14:30;;;;;;;5.53;1.60;;;14.90;99.90;;;;;;5089581;28;20403;-39
2022/10/25 01:17:16;;;;;;;7.30;1.60;;;14.90;99.90;;;;;;5089720;28;20415;-37
2022/10/25 01:19:57;;;;;;;4.97;2.07;;;15.00;99.90;;;;;;5087533;28;20846;-38
2022/10/25 01:22:25;;;;;;;5.43;1.40;;;14.90;99.90;;;;;;5089361;28;20453;-37
2022/10/25 01:25:35;;;;;;;6.23;1.50;;;14.90;99.90;;;;;;5089724;28;20443;-38
2022/10/25 01:28:01;;;;;;;6.40;1.80;;;14.90;99.90;;;;;;5016102;28;20448;-37
2022/10/25 01:30:50;;;;;;;6.17;2.13;;;15.00;99.90;;;;;;5089116;28;20485;-38
2022/10/25 01:33:26;;;;;;;5.80;2.00;;;14.90;99.90;;;;;;5089417;28;20549;-38
2022/10/25 01:36:12;;;;;;;3.67;1.30;;;15.00;99.90;;;;;;5089625;28;20405;-37
2022/10/25 01:39:07;;;;;;;9.63;3.90;;;14.90;99.90;;;;;;5088941;28;20436;-37
2022/10/25 01:41:59;;;;;;;2.87;1.47;;;14.90;99.90;;;;;;5016520;28;20425;-38
2022/10/25 01:44:33;;;;;;;4.13;1.70;;;14.90;99.90;;;;;;5088556;28;20958;-37
2022/10/25 01:47:12;;;;;;;6.87;1.50;;;14.90;99.90;;;;;;5089285;28;20420;-38
2022/10/25 01:49:50;;;;;;;4.27;1.33;;;14.90;99.90;;;;;;5087541;28;21003;-38
2022/10/25 01:52:21;;;;;;;5.13;1.60;;;14.90;99.90;;;;;;5089138;28;20817;-39
2022/10/25 01:54:48;;;;;;;3.07;1.37;;;15.00;99.90;;;;;;5088681;28;20418;-37
2022/10/25 01:57:32;;;;;;;4.40;1.53;;;14.90;99.90;;;;;;5088087;28;20476;-38
2022/10/25 02:00:13;;;;;;;6.87;1.30;;;15.00;99.90;;;;;;5088465;28;20959;-37
2022/10/25 02:02:57;;;;;;;5.10;1.40;;;15.00;99.90;;;;;;5088680;28;20414;-37
2022/10/25 02:05:41;;;;;;;2.97;1.43;;;14.90;99.90;;;;;;5088248;28;20888;-37
2022/10/25 02:08:17;;;;;;;6.10;1.70;;;15.00;99.90;;;;;;5088851;28;20442;-37
2022/10/25 02:11:00;;;;;;;3.00;1.77;;;15.00;99.90;;;;;;5088475;28;20402;-37
2022/10/25 02:13:32;;;;;;;8.83;1.60;;;15.00;99.90;;;;;;5087143;28;20410;-38
2022/10/25 02:16:21;;;;;;;8.27;1.97;;;14.90;99.90;;;;;;5088672;28;20563;-37
2022/10/25 02:18:50;;;;;;;4.23;1.63;;;14.90;99.90;;;;;;5088346;28;20908;-37
2022/10/25 02:21:17;;;;;;;8.53;1.80;;;14.90;99.90;;;;;;5088595;28;20422;-37
2022/10/25 02:23:44;;;;;;;8.13;1.60;;;14.90;99.90;;;;;;5088458;28;20419;-38
2022/10/25 02:26:11;;;;;;;4.60;1.80;;;14.90;99.90;;;;;;5088365;28;20436;-38
2022/10/25 02:28:39;;;;;;;6.97;1.60;;;14.90;99.90;;;;;;5088129;28;20538;-37
2022/10/25 02:31:14;;;;;;;4.90;1.63;;;15.00;99.90;;;;;;5087986;28;20921;-38
2022/10/25 02:33:43;;;;;;;3.20;1.20;;;15.00;99.90;;;;;;5088349;28;20413;-37
2022/10/25 02:36:14;;;;;;;3.07;1.77;;;15.00;99.90;;;;;;5088523;28;20904;-37
2022/10/25 02:38:41;;;;;;;3.77;1.30;;;15.00;99.90;;;;;;5087884;28;20464;-37
2022/10/25 02:44:47;;;;;;;5.23;1.60;;;14.90;99.90;;;;;;5087912;28;20478;-37
2022/10/25 02:47:12;;;;;;;5.90;1.70;;;14.80;99.90;;;;;;5087891;28;20947;-38
2022/10/25 02:49:38;;;;;;;6.83;1.80;;;14.90;99.90;;;;;;5088072;28;20462;-38
2022/10/25 02:52:04;;;;;;;3.63;1.90;;;14.80;99.90;;;;;;5088236;28;20172;-37
2022/10/25 02:54:29;;;;;;;3.67;1.40;;;14.90;99.90;;;;;;5087730;28;20195;-38
2022/10/25 02:56:55;;;;;;;5.80;1.27;;;14.90;99.90;;;;;;5085987;28;20255;-37
2022/10/25 02:59:21;;;;;;;7.90;2.30;;;14.90;99.90;;;;;;5087933;28;20195;-37
2022/10/25 03:01:46;;;;;;;7.37;1.73;;;14.90;99.90;;;;;;5088491;28;20220;-38
2022/10/25 03:04:12;;;;;;;6.33;1.90;;;14.90;99.90;;;;;;5088313;28;20188;-38
2022/10/25 03:06:38;;;;;;;6.10;1.70;;;14.90;99.90;;;;;;5087990;28;20192;-38
2022/10/25 03:09:04;;;;;;;10.30;1.80;;;14.90;99.90;;;;;;5087739;28;20204;-37
2022/10/25 03:11:29;;;;;;;4.03;1.73;;;14.90;99.90;;;;;;5088060;28;20286;-37
2022/10/25 03:13:55;;;;;;;3.43;1.37;;;14.90;99.90;;;;;;5087883;28;20414;-38
2022/10/25 03:16:21;;;;;;;3.37;1.43;;;14.90;99.90;;;;;;5089529;28;20287;-38
2022/10/25 03:18:46;;;;;;;2.53;1.27;;;14.90;99.90;;;;;;5089432;28;20690;-38
2022/10/25 03:21:12;;;;;;;4.80;1.53;;;14.90;99.90;;;;;;5089744;28;20642;-37
2022/10/25 03:23:37;;;;;;;3.40;1.43;;;14.90;99.90;;;;;;5089220;28;20595;-37
2022/10/25 03:26:03;;;;;;;4.17;2.23;;;14.90;99.90;;;;;;5089682;28;20180;-39
2022/10/25 03:28:30;;;;;;;4.43;1.97;;;14.90;99.90;;;;;;5089024;28;20261;-38
2022/10/25 03:30:57;;;;;;;4.80;1.53;;;14.90;99.90;;;;;;5089630;28;20238;-37
2022/10/25 03:33:23;;;;;;;4.90;1.70;;;14.90;99.90;;;;;;5089156;28;20920;-37
2022/10/25 03:35:51;;;;;;;5.17;1.30;;;14.90;99.90;;;;;;5089805;28;20455;-37
2022/10/25 03:38:16;;;;;;;6.47;1.60;;;14.90;99.90;;;;;;5089496;28;20422;-38
2022/10/25 03:40:43;;;;;;;3.77;1.67;;;14.90;99.90;;;;;;5089352;28;20411;-38
2022/10/25 03:43:08;;;;;;;4.20;1.40;;;15.00;99.90;;;;;;5088933;28;20181;-37
2022/10/25 03:45:34;;;;;;;3.60;1.73;;;14.90;99.90;;;;;;5091515;28;20425;-37
2022/10/25 03:48:00;;;;;;;5.60;2.13;;;15.00;99.90;;;;;;5092952;28;20213;-37
2022/10/25 03:50:25;;;;;;;4.17;1.77;;;15.00;99.90;;;;;;5091341;28;20560;-38
2022/10/25 03:52:51;;;;;;;5.90;1.80;;;15.00;99.90;;;;;;5092658;28;20655;-37
2022/10/25 03:55:17;;;;;;;6.60;1.67;;;15.00;99.90;;;;;;5092148;28;20202;-37
2022/10/25 03:57:42;;;;;;;3.70;1.73;;;14.90;99.90;;;;;;5092768;28;20181;-37
2022/10/25 04:00:08;;;;;;;4.43;1.33;;;14.90;99.90;;;;;;5092300;28;20655;-38
2022/10/25 04:02:34;;;;;;;9.97;1.90;;;15.00;99.90;;;;;;5092474;28;20181;-38
2022/10/25 04:05:00;;;;;;;3.47;1.40;;;14.90;99.90;;;;;;5092662;28;20436;-38
2022/10/25 04:07:25;;;;;;;5.67;1.40;;;14.90;99.90;;;;;;5092641;28;20220;-37
2022/10/25 04:09:51;;;;;;;8.23;1.53;;;14.90;99.90;;;;;;5090898;28;20204;-37
2022/10/25 04:12:17;;;;;;;4.00;1.40;;;14.90;99.90;;;;;;5092632;28;20275;-37
2022/10/25 04:14:42;;;;;;;4.83;2.00;;;14.90;99.90;;;;;;5091911;28;20184;-38
2022/10/25 04:17:08;;;;;;;5.83;1.50;;;14.90;99.90;;;;;;5092723;28;20573;-37
2022/10/25 04:19:34;;;;;;;2.30;1.60;;;14.80;99.90;;;;;;5091956;28;20711;-37
2022/10/25 04:22:01;;;;;;;4.23;1.30;;;14.80;99.90;;;;;;5092474;28;20184;-37
2022/10/25 04:24:27;;;;;;;2.20;1.40;;;14.80;99.90;;;;;;5092045;28;20172;-37
2022/10/25 04:26:53;;;;;;;2.77;1.50;;;14.80;99.90;;;;;;5092293;28;20423;-37
2022/10/25 04:29:18;;;;;;;6.83;1.90;;;14.80;99.90;;;;;;5091784;28;20967;-37
2022/10/25 04:31:44;;;;;;;4.67;1.77;;;14.80;99.90;;;;;;5092341;28;20180;-38
2022/10/25 04:34:10;;;;;;;3.50;1.50;;;14.80;99.90;;;;;;5090841;28;20184;-37
2022/10/25 04:36:37;;;;;;;4.60;2.43;;;14.80;99.90;;;;;;5092121;28;20173;-38
2022/10/25 04:39:04;;;;;;;5.37;1.67;;;14.90;99.90;;;;;;5091910;28;20169;-37
2022/10/25 04:41:29;;;;;;;3.50;2.23;;;14.90;99.90;;;;;;5091814;28;21009;-37
2022/10/25 04:43:55;;;;;;;4.63;1.40;;;14.90;99.90;;;;;;5091676;28;20454;-38
2022/10/25 04:46:21;;;;;;;3.30;1.43;;;14.90;99.90;;;;;;5092069;28;20196;-38
2022/10/25 04:48:47;;;;;;;3.53;1.40;;;14.90;99.90;;;;;;5091533;28;20197;-38
2022/10/25 04:51:13;;;;;;;5.00;1.73;;;14.80;99.90;;;;;;5090448;28;20180;-37
2022/10/25 04:53:39;;;;;;;5.50;1.60;;;14.80;99.90;;;;;;5091590;28;20438;-38
2022/10/25 04:56:11;;;;;;;5.30;1.87;;;14.90;99.90;;;;;;5090167;28;20768;-37
2022/10/25 04:58:37;;;;;;;2.83;1.30;;;14.90;99.90;;;;;;5090156;28;20426;-38
2022/10/25 05:01:08;;;;;;;5.93;1.60;;;14.90;99.90;;;;;;5090303;28;20419;-38
2022/10/25 05:03:34;;;;;;;3.60;1.70;;;14.90;99.90;;;;;;5091358;28;20259;-38
2022/10/25 05:06:14;;;;;;;3.90;1.77;;;14.90;99.90;;;;;;5091516;28;20512;-39
2022/10/25 05:08:43;;;;;;;5.97;1.67;;;14.90;99.90;;;;;;5089723;28;21018;-37
2022/10/25 05:11:10;;;;;;;6.10;1.90;;;14.90;99.90;;;;;;5091316;28;20406;-37
2022/10/25 05:13:37;;;;;;;2.17;1.60;;;14.90;99.90;;;;;;5091353;28;20426;-37
2022/10/25 05:16:04;;;;;;;8.93;2.10;;;14.80;99.90;;;;;;5091362;28;20402;-39
2022/10/25 05:18:30;;;;;;;4.83;1.90;;;14.80;99.90;;;;;;5089615;28;20427;-38
2022/10/25 05:20:58;;;;;;;3.57;1.80;;;14.80;99.90;;;;;;5091317;28;20457;-38
2022/10/25 05:23:26;;;;;;;4.43;1.63;;;14.80;99.90;;;;;;5090944;28;20425;-37
2022/10/25 05:26:05;;;;;;;5.60;2.10;;;14.80;99.90;;;;;;5091212;28;20419;-37
2022/10/25 05:28:32;;;;;;;2.63;1.70;;;14.90;99.90;;;;;;5090640;28;20450;-37
2022/10/25 05:31:02;;;;;;;12.63;2.43;;;14.80;99.90;;;;;;5091028;28;20417;-39
2022/10/25 05:33:27;;;;;;;4.90;2.00;;;14.80;99.90;;;;;;5090528;28;20411;-37
2022/10/25 05:35:53;;;;;;;7.47;1.77;;;14.80;99.90;;;;;;5090813;28;20418;-38
2022/10/25 05:38:18;;;;;;;4.57;1.87;;;14.90;99.90;;;;;;5090902;28;20176;-38
2022/10/25 05:40:54;;;;;;;4.80;2.10;;;14.80;99.90;;;;;;5090593;28;20217;-37
2022/10/25 05:43:20;;;;;;;3.23;1.73;;;14.90;99.90;;;;;;5089281;28;20180;-37
2022/10/25 05:45:46;;;;;;;3.83;2.10;;;14.90;99.90;;;;;;5090859;28;20896;-38
2022/10/25 05:48:11;;;;;;;6.63;2.20;;;14.80;99.90;;;;;;5090410;28;20505;-38
2022/10/25 05:50:37;;;;;;;4.80;1.87;;;14.80;99.90;;;;;;5090382;28;20279;-37
2022/10/25 05:53:03;;;;;;;3.20;1.67;;;14.80;99.90;;;;;;5090202;28;20219;-37
2022/10/25 05:55:29;;;;;;;7.30;2.17;;;14.70;99.90;;;;;;5089947;28;20180;-37
2022/10/25 05:57:54;;;;;;;4.20;2.10;;;14.80;99.90;;;;;;5090589;28;20286;-38
2022/10/25 06:00:20;;;;;;;5.33;2.10;;;14.80;99.90;;;;;;5090285;28;20787;-37
2022/10/25 06:02:46;;;;;;;5.53;2.53;;;14.80;99.90;;;;;;5090155;28;20622;-37
2022/10/25 06:05:11;;;;;;;4.93;1.73;;;14.80;99.90;;;;;;5090518;28;20188;-37
2022/10/25 06:07:37;;;;;;;6.53;2.33;;;14.80;99.90;;;;;;5089639;28;20200;-37
2022/10/25 06:10:03;;;;;;;7.07;2.33;;;14.80;99.90;;;;;;5090072;28;20208;-38
2022/10/25 06:12:28;;;;;;;8.17;2.40;;;14.80;99.90;;;;;;5090402;28;20811;-38
2022/10/25 06:14:54;;;;;;;9.93;2.07;;;14.80;99.90;;;;;;5088924;28;20837;-38
2022/10/25 06:17:19;;;;;;;4.80;2.30;;;14.80;99.90;;;;;;5090239;28;20182;-37
2022/10/25 06:19:45;;;;;;;3.73;2.10;;;14.80;99.90;;;;;;5089800;28;20180;-38
2022/10/25 06:22:11;;;;;;;5.10;2.00;;;14.80;99.90;;;;;;5090245;28;20184;-38
2022/10/25 06:24:36;;;;;;;4.60;2.23;;;14.70;99.90;;;;;;5071799;28;20651;-37
2022/10/25 06:27:02;;;;;;;5.33;2.03;;;14.80;99.90;;;;;;5090280;28;20234;-38
2022/10/25 06:29:28;;;;;;;5.83;2.13;;;14.80;99.90;;;;;;5089657;28;20302;-37
2022/10/25 06:31:53;;;;;;;3.67;2.30;;;14.80;99.90;;;;;;5089954;28;20714;-37
2022/10/25 06:34:19;;;;;;;2.63;2.13;;;14.80;99.90;;;;;;5089835;28;20187;-37
2022/10/25 06:36:45;;;;;;;6.00;2.33;;;14.80;99.90;;;;;;5088801;28;20184;-37
2022/10/25 06:39:10;;;;;;;6.50;2.27;;;14.70;99.90;;;;;;5089827;28;20184;-38
2022/10/25 06:41:36;;;;;;;9.40;2.20;;;14.80;99.90;;;;;;5090064;28;20185;-37
2022/10/25 06:44:02;;;;;;;3.77;2.33;;;14.80;99.90;;;;;;5089769;28;20762;-38
2022/10/25 06:46:31;;;;;;;4.00;1.87;;;14.70;99.90;;;;;;5089901;28;20188;-37
2022/10/25 06:48:58;;;;;;;4.80;2.50;;;14.70;99.90;;;;;;5089555;28;20193;-37
2022/10/25 06:51:26;;;;;;;4.00;2.17;;;14.70;99.90;;;;;;5090089;28;20769;-37
2022/10/25 06:54:06;;;;;;;6.47;2.43;;;14.70;99.90;;;;;;5089689;28;20410;-38
2022/10/25 06:56:33;;;;;;;7.00;3.10;;;14.70;99.90;;;;;;5089049;28;20414;-37
2022/10/25 06:58:58;;;;;;;3.57;2.33;;;14.70;99.90;;;;;;5089592;28;20441;-38
2022/10/25 07:01:25;;;;;;;7.30;2.27;;;14.70;99.90;;;;;;5088441;28;20419;-37
2022/10/25 07:03:55;;;;;;;3.73;2.60;;;14.80;99.90;;;;;;5088800;28;20184;-37
2022/10/25 07:06:24;;;;;;;5.97;2.30;;;14.80;99.90;;;;;;5088744;28;20831;-38
2022/10/25 07:08:53;;;;;;;6.50;2.37;;;14.80;99.90;;;;;;5087754;28;20549;-38
2022/10/25 07:11:19;;;;;;;4.90;2.00;;;14.80;99.90;;;;;;5089662;28;20419;-37
2022/10/25 07:13:46;;;;;;;5.00;1.83;;;14.80;99.90;;;;;;5089387;28;20446;-38
2022/10/25 07:16:14;;;;;;;7.50;1.87;;;14.80;99.90;;;;;;5088464;28;20421;-37
2022/10/25 07:18:40;;;;;;;7.10;2.20;;;14.80;99.90;;;;;;5091735;28;20426;-38
2022/10/25 07:21:19;;;;;;;5.90;2.23;;;14.80;99.90;;;;;;5093484;28;20458;-38
2022/10/25 07:23:44;;;;;;;5.60;1.83;;;14.80;99.90;;;;;;5093202;28;20428;-38
2022/10/25 07:26:12;;;;;;;4.87;2.03;;;14.80;99.90;;;;;;5093406;28;20418;-37
2022/10/25 07:28:38;;;;;;;5.93;2.10;;;14.80;99.90;;;;;;5093120;28;20205;-37
2022/10/25 07:31:04;;;;;;;5.27;2.20;;;14.80;99.90;;;;;;5093439;28;20410;-38
2022/10/25 07:33:30;;;;;;;5.47;2.20;;;14.80;99.90;;;;;;5093005;28;20503;-38
2022/10/25 07:35:56;;;;;;;3.73;2.17;;;14.90;99.90;;;;;;5093333;28;20457;-38
2022/10/25 07:38:22;;;;;;;3.30;2.73;;;14.80;99.90;;;;;;5092964;28;20421;-37
2022/10/25 07:40:53;;;;;;;4.33;2.30;;;14.80;99.90;;;;;;5093282;28;20422;-38
2022/10/25 07:43:19;;;;;;;8.40;2.40;;;14.90;99.90;;;;;;5092989;28;20188;-38
2022/10/25 07:45:44;;;;;;;5.10;1.77;;;14.90;99.90;;;;;;5093222;28;20414;-37
2022/10/25 07:48:10;;;;;;;6.63;2.50;;;15.00;99.90;;;;;;5091685;28;20253;-38
2022/10/25 07:50:35;;;;;;;3.30;1.93;;;15.00;99.90;;;;;;5091470;28;20567;-38
2022/10/25 07:53:01;;;;;;;5.70;2.53;;;15.00;99.90;;;;;;5092681;28;20184;-37
2022/10/25 07:55:27;;;;;;;4.93;2.40;;;15.10;99.90;;;;;;5090969;28;20181;-37
2022/10/25 07:58:02;;;;;;;6.73;2.37;;;15.10;99.90;;;;;;5092759;28;20614;-38
2022/10/25 08:00:28;;;;;;;5.57;2.83;;;15.30;99.90;;;;;;5092629;28;20256;-38
2022/10/25 08:02:54;;;;;;;4.80;2.30;;;15.50;99.90;;;;;;5092402;28;20454;-37
2022/10/25 08:05:19;;;;;;;3.23;2.23;;;15.70;99.90;;;;;;5091522;28;20188;-37
2022/10/25 08:07:45;;;;;;;6.40;2.40;;;15.90;99.90;;;;;;5092564;28;20200;-37
2022/10/25 08:10:11;;;;;;;6.47;2.00;;;16.20;99.90;;;;;;5092308;28;20565;-37
2022/10/25 08:12:36;;;;;;;5.07;2.40;;;16.30;99.90;;;;;;5092511;28;20184;-38
2022/10/25 08:15:02;;;;;;;4.33;2.10;;;16.50;99.90;;;;;;5092360;28;20669;-37
2022/10/25 08:17:28;;;;;;;8.53;2.40;;;16.50;99.90;;;;;;5091298;28;20184;-38
2022/10/25 08:19:55;;;;;;;4.93;2.37;;;16.40;99.90;;;;;;5091970;28;20521;-37
2022/10/25 08:22:20;;;;;;;4.10;2.27;;;16.40;99.90;;;;;;5092282;28;20776;-37
2022/10/25 08:24:46;;;;;;;3.77;2.13;;;16.40;99.90;;;;;;5090811;28;20425;-37
2022/10/25 08:27:12;;;;;;;5.13;1.90;;;16.30;99.90;;;;;;5092450;28;20210;-38
2022/10/25 08:29:38;;;;;;;4.17;2.30;;;16.20;99.90;;;;;;5089700;28;20212;-37
2022/10/25 08:32:04;;;;;;;5.57;2.90;;;16.30;99.90;;;;;;5091030;28;20472;-38
2022/10/25 08:34:29;;;;;;;5.17;2.10;;;16.50;99.90;;;;;;5091976;28;20418;-37
2022/10/25 08:36:55;;;;;;;3.70;1.83;;;16.50;99.90;;;;;;5092256;28;20176;-38
2022/10/25 08:39:20;;;;;;;5.97;2.80;;;16.70;99.90;;;;;;5091787;28;20206;-37
2022/10/25 08:41:57;;;;;;;6.73;3.13;;;16.70;99.90;;;;;;5092165;28;20192;-38
2022/10/25 08:44:32;;;;;;;4.43;2.50;;;16.70;99.90;;;;;;5091691;28;20694;-38
2022/10/25 08:47:06;;;;;;;5.20;1.80;;;16.60;99.90;;;;;;5091903;28;20414;-37
2022/10/25 08:49:53;;;;;;;6.57;2.30;;;16.60;99.90;;;;;;5091201;28;20494;-37
2022/10/25 08:52:41;;;;;;;5.20;1.90;;;16.50;99.90;;;;;;5091989;28;20417;-38
2022/10/25 08:55:26;;;;;;;4.50;1.90;;;16.50;99.90;;;;;;5090238;28;20419;-38
2022/10/25 08:57:53;;;;;;;4.07;2.03;;;16.40;99.90;;;;;;5091562;28;20507;-38
2022/10/25 09:00:22;;;;;;;5.63;1.90;;;16.40;99.90;;;;;;5091366;28;20418;-38
2022/10/25 09:02:51;;;;;;;3.23;1.90;;;16.40;99.90;;;;;;5091407;28;20928;-39
2022/10/25 09:05:40;;;;;;;7.20;2.30;;;16.40;99.90;;;;;;5091438;28;20839;-37
2022/10/25 09:08:26;;;;;;;4.03;1.70;;;16.40;99.90;;;;;;5091534;28;20434;-38
2022/10/25 09:11:16;;;;;;;4.40;1.80;;;16.50;99.90;;;;;;5091579;28;20687;-37
2022/10/25 09:13:44;;;;;;;7.63;2.10;;;16.70;99.90;;;;;;5091317;28;20571;-37
2022/10/25 09:16:23;;;;;;;3.00;1.23;;;16.70;99.90;;;;;;5091423;28;20439;-37
2022/10/25 09:18:53;;;;;;;7.23;2.00;;;16.70;99.90;;;;;;5090882;28;20445;-37
2022/10/25 09:21:34;;;;;;;3.67;2.03;;;16.70;99.90;;;;;;5091169;28;20422;-40
2022/10/25 09:24:26;;;;;;;4.17;2.03;;;16.60;99.90;;;;;;5091079;28;21073;-38
2022/10/25 09:27:06;;;;;;;3.90;1.60;;;16.60;99.90;;;;;;5091060;28;20415;-38
2022/10/25 09:29:38;;;;;;;3.47;1.83;;;16.60;99.90;;;;;;5089387;28;20545;-39
2022/10/25 09:32:13;;;;;;;4.13;1.60;;;16.70;99.90;;;;;;5089712;28;20418;-38
2022/10/25 09:34:39;;;;;;;4.47;1.97;;;16.70;99.90;;;;;;5090989;28;20405;-37
2022/10/25 09:37:40;;;;;;;3.90;1.97;;;16.80;99.90;;;;;;5090863;28;20771;-40
2022/10/25 09:40:16;;;;;;;3.20;1.60;;;16.80;99.90;;;;;;5036208;28;20425;-38
2022/10/25 09:42:58;;;;;;;3.53;1.80;;;16.80;99.90;;;;;;5090482;28;20505;-38
2022/10/25 09:45:33;;;;;;;10.00;2.33;;;16.70;99.90;;;;;;5091007;28;20421;-38
2022/10/25 09:47:58;;;;;;;5.27;1.93;;;16.70;99.90;;;;;;5090555;28;20954;-38
2022/10/25 09:50:29;;;;;;;3.47;1.60;;;16.60;99.90;;;;;;5090456;28;20462;-37
2022/10/25 09:53:11;;;;;;;5.27;2.10;;;16.70;99.90;;;;;;5090454;28;20180;-37
2022/10/25 09:55:55;;;;;;;3.10;1.80;;;16.70;99.90;;;;;;5089385;28;20426;-39
2022/10/25 09:58:30;;;;;;;5.93;2.00;;;16.60;99.90;;;;;;5090362;28;20560;-38
2022/10/25 10:01:03;;;;;;;6.00;1.90;;;16.60;99.90;;;;;;5090561;28;20428;-37
2022/10/25 10:03:32;;;;;;;3.67;1.53;;;16.50;99.90;;;;;;5090287;28;20422;-38
2022/10/25 10:06:01;;;;;;;4.20;1.60;;;16.50;99.90;;;;;;5090446;28;20442;-38
2022/10/25 10:08:31;;;;;;;8.03;1.83;;;16.50;99.90;;;;;;5089965;28;20426;-38
2022/10/25 10:10:58;;;;;;;4.77;1.63;;;16.40;99.90;;;;;;5090433;28;20503;-37
2022/10/25 10:13:41;;;;;;;4.37;2.07;;;16.40;99.90;;;;;;5088822;28;20954;-38
2022/10/25 10:16:38;;;;;;;4.23;1.70;;;16.40;99.90;;;;;;5089252;28;20172;-38
2022/10/25 10:19:19;;;;;;;5.17;2.23;;;16.40;99.90;;;;;;5089673;28;20422;-38
2022/10/25 10:21:54;;;;;;;6.03;2.10;;;16.50;99.90;;;;;;5090273;28;20575;-38
2022/10/25 10:24:29;;;;;;;3.10;1.67;;;16.50;99.90;;;;;;5089995;28;20418;-38
2022/10/25 10:27:21;;;;;;;6.37;1.90;;;16.50;99.90;;;;;;5090487;28;20475;-37
2022/10/25 10:30:01;;;;;;;4.23;2.03;;;16.50;99.90;;;;;;5089432;28;20454;-38
2022/10/25 10:32:37;;;;;;;4.57;2.17;;;16.50;99.90;;;;;;5090031;28;20457;-38
2022/10/25 10:35:11;;;;;;;5.13;1.80;;;16.50;99.90;;;;;;5090130;28;20442;-38
2022/10/25 10:37:37;;;;;;;2.50;1.93;;;16.40;99.90;;;;;;5090322;28;20815;-37
2022/10/25 10:40:23;;;;;;;3.53;1.77;;;16.40;99.90;;;;;;5089368;28;20422;-38
2022/10/25 10:42:48;;;;;;;4.47;1.90;;;16.30;99.90;;;;;;5089892;28;20176;-37
2022/10/25 10:45:18;;;;;;;3.77;2.30;;;16.30;99.90;;;;;;5088607;28;20419;-38
2022/10/25 10:47:50;;;;;;;6.93;1.87;;;16.40;99.90;;;;;;5090114;28;20188;-37
2022/10/25 10:50:24;;;;;;;5.20;2.10;;;16.40;99.90;;;;;;5089312;28;20457;-37
2022/10/25 10:52:59;;;;;;;5.03;1.70;;;16.40;99.90;;;;;;5090936;28;20803;-38
2022/10/25 10:55:45;;;;;;;3.93;1.60;;;16.50;99.90;;;;;;5092787;28;20413;-38
2022/10/25 10:58:29;;;;;;;3.27;1.73;;;16.60;99.90;;;;;;5094221;28;20453;-37
2022/10/25 11:01:09;;;;;;;4.63;1.87;;;16.60;99.90;;;;;;5093884;28;20517;-38
2022/10/25 11:03:41;;;;;;;10.03;2.00;;;16.60;99.90;;;;;;5093816;28;20810;-37
2022/10/25 11:06:13;;;;;;;2.37;1.40;;;16.60;99.90;;;;;;5092612;28;20430;-38
2022/10/25 11:08:40;;;;;;;3.07;1.40;;;16.50;99.90;;;;;;5092320;28;20466;-38
2022/10/25 11:11:20;;;;;;;7.90;1.70;;;16.60;99.90;;;;;;5092006;28;20922;-38
2022/10/25 11:13:55;;;;;;;4.67;1.90;;;16.70;99.90;;;;;;5093557;28;20418;-40
2022/10/25 11:16:31;;;;;;;2.90;1.50;;;16.70;99.90;;;;;;5093523;28;20418;-38
2022/10/25 11:19:39;;;;;;;5.20;2.00;;;16.70;99.90;;;;;;5093287;28;20505;-38
2022/10/25 11:22:40;;;;;;;3.27;1.37;;;16.80;99.90;;;;;;5053184;28;20431;-38
2022/10/25 11:25:08;;;;;;;3.27;1.63;;;16.90;99.90;;;;;;5055503;28;20449;-38
2022/10/25 11:27:46;;;;;;;1.90;1.57;;;16.90;99.90;;;;;;5073190;28;20411;-37
2022/10/25 11:30:18;;;;;;;5.00;2.00;;;16.90;99.90;;;;;;5072713;28;20459;-38
2022/10/25 11:33:05;;;;;;;2.50;1.63;;;17.00;99.90;;;;;;5072609;28;20411;-38
2022/10/25 11:35:43;;;;;;;4.83;2.00;;;17.10;99.90;;;;;;5071871;28;20421;-38
2022/10/25 11:38:27;;;;;;;2.50;1.80;;;17.20;99.90;;;;;;5072684;28;20404;-38
2022/10/25 11:41:23;;;;;;;5.10;1.60;;;17.40;99.90;;;;;;5071832;28;20451;-38
2022/10/25 11:43:49;;;;;;;4.00;1.93;;;17.50;99.90;;;;;;5072697;28;20443;-38
2022/10/25 11:46:28;;;;;;;2.87;1.47;;;17.70;99.90;;;;;;5071655;28;20435;-38
2022/10/25 11:49:28;;;;;;;3.73;1.40;;;17.80;99.90;;;;;;5072241;28;20205;-40
2022/10/25 11:52:15;;;;;;;3.23;1.73;;;17.80;99.90;;;;;;5072788;28;20434;-38
2022/10/25 11:54:52;;;;;;;4.30;2.07;;;17.60;99.90;;;;;;5072611;28;20407;-38
2022/10/25 11:57:26;;;;;;;4.90;1.77;;;17.70;99.90;;;;;;5070429;28;20403;-38
2022/10/25 12:00:05;;;;;;;4.47;2.00;;;17.80;99.90;;;;;;5072256;28;20403;-38
2022/10/25 12:02:41;;;;;;;6.70;1.70;;;17.90;99.90;;;;;;5072327;28;20407;-38
2022/10/25 12:05:24;;;;;;;3.83;1.80;;;18.10;99.90;;;;;;5071357;28;20403;-38
2022/10/25 12:08:15;;;;;;;3.43;1.63;;;18.10;99.90;;;;;;5072376;28;20924;-38
2022/10/25 12:10:46;;;;;;;5.07;1.67;;;18.20;99.90;;;;;;5072180;28;21063;-40
2022/10/25 12:13:18;;;;;;;5.77;1.60;;;18.30;99.90;;;;;;5072044;28;20435;-38
2022/10/25 12:15:51;;;;;;;4.33;1.50;;;18.40;99.90;;;;;;5072218;28;20476;-38
2022/10/25 12:18:39;;;;;;;4.50;2.00;;;18.50;99.90;;;;;;5072244;28;20490;-38
2022/10/25 12:21:07;;;;;;;3.30;1.57;;;18.50;99.90;;;;;;5084179;28;20460;-38
2022/10/25 12:23:47;;;;;;;2.63;1.33;;;18.50;99.90;;;;;;5092270;28;20442;-40
2022/10/25 12:26:30;;;;;;;3.00;1.40;;;18.50;99.90;;;;;;5092371;28;20415;-39
2022/10/25 12:29:03;;;;;;;2.07;1.23;;;18.60;99.90;;;;;;5091987;28;20510;-38
2022/10/25 12:31:37;;;;;;;3.87;1.27;;;18.60;99.90;;;;;;5092376;28;20422;-39
2022/10/25 12:34:20;;;;;;;4.37;1.60;;;18.60;99.90;;;;;;5092078;28;20537;-38
2022/10/25 12:36:53;;;;;;;1.97;1.30;;;18.60;99.90;;;;;;5092226;28;21068;-40
2022/10/25 12:39:29;;;;;;;5.27;1.90;;;18.60;99.90;;;;;;5091701;28;20917;-38
2022/10/25 12:42:00;;;;;;;3.23;1.50;;;18.60;99.90;;;;;;5092225;28;20986;-38
2022/10/25 12:44:25;;;;;;;5.37;1.40;;;18.60;99.90;;;;;;5091608;28;20411;-38
2022/10/25 12:47:10;;;;;;;3.43;1.13;;;18.70;99.90;;;;;;5092040;28;20751;-38
2022/10/25 12:49:47;;;;;;;2.70;1.23;;;18.70;99.90;;;;;;5091580;28;20277;-38
2022/10/25 12:52:33;;;;;;;2.50;1.10;;;18.70;99.90;;;;;;5091925;28;20981;-38
2022/10/25 12:55:17;;;;;;;3.80;1.60;;;18.60;99.90;;;;;;5088841;28;20929;-37
2022/10/25 12:58:03;;;;;;;2.70;1.10;;;18.50;99.90;;;;;;5091788;28;20403;-38
2022/10/25 13:00:37;;;;;;;3.10;1.50;;;18.40;99.90;;;;;;5091237;28;20410;-40
2022/10/25 13:03:41;;;;;;;2.57;1.37;;;18.30;99.90;;;;;;5091382;28;20913;-38
2022/10/25 13:06:34;;;;;;;3.33;1.57;;;18.20;99.90;;;;;;5048501;28;20840;-38
2022/10/25 13:09:05;;;;;;;5.30;1.67;;;18.10;99.90;;;;;;5031457;28;20463;-39
2022/10/25 13:11:37;;;;;;;3.67;1.40;;;18.00;99.90;;;;;;5077665;28;20937;-38